createdAt,value
2018-08-11T00:00:20.240Z,14.82
2018-08-11T00:02:47.338Z,14.93
2018-08-11T00:05:14.380Z,14.90
2018-08-11T00:07:41.463Z,14.64
2018-08-11T00:10:08.855Z,14.57
2018-08-11T00:12:36.159Z,14.71
2018-08-11T00:15:04.607Z,14.55
2018-08-11T00:17:31.644Z,14.60
2018-08-11T00:19:58.735Z,14.49
2018-08-11T00:22:26.088Z,14.53
2018-08-11T00:24:53.122Z,14.76
2018-08-11T00:27:20.208Z,14.72
2018-08-11T00:29:47.612Z,14.86
2018-08-11T00:32:14.663Z,14.80
2018-08-11T00:34:41.719Z,14.69
2018-08-11T00:37:08.919Z,14.76
2018-08-11T00:39:35.976Z,14.54
2018-08-11T00:42:03.105Z,14.43
2018-08-11T00:44:30.191Z,14.33
2018-08-11T00:46:57.258Z,14.28
2018-08-11T00:49:24.345Z,14.27
2018-08-11T00:51:51.456Z,14.32
2018-08-11T00:54:18.497Z,14.37
2018-08-11T00:56:45.551Z,14.44
2018-08-11T00:59:12.763Z,14.37
2018-08-11T01:01:39.861Z,14.36
2018-08-11T01:04:06.981Z,14.36
2018-08-11T01:06:34.156Z,14.41
2018-08-11T01:09:01.155Z,14.42
2018-08-11T01:11:28.160Z,14.52
2018-08-11T01:13:55.159Z,14.50
2018-08-11T01:16:22.571Z,14.52
2018-08-11T01:18:49.605Z,14.50
2018-08-11T01:21:16.713Z,14.46
2018-08-11T01:23:43.747Z,14.45
2018-08-11T01:26:10.847Z,14.48
2018-08-11T01:28:37.856Z,14.51
2018-08-11T01:31:05.151Z,14.53
2018-08-11T01:33:32.353Z,14.63
2018-08-11T01:35:59.375Z,14.64
2018-08-11T01:38:26.714Z,14.67
2018-08-11T01:40:53.747Z,14.76
2018-08-11T01:43:20.796Z,14.72
2018-08-11T01:45:47.893Z,14.76
2018-08-11T01:48:14.932Z,14.81
2018-08-11T01:50:52.171Z,14.88
2018-08-11T01:53:19.286Z,14.82
2018-08-11T01:55:46.303Z,14.88
2018-08-11T01:58:13.319Z,14.91
2018-08-11T02:00:40.442Z,14.95
2018-08-11T02:03:07.503Z,14.93
2018-08-11T02:05:34.620Z,14.96
2018-08-11T02:08:01.700Z,14.92
2018-08-11T02:10:28.727Z,14.91
2018-08-11T02:12:55.801Z,14.95
2018-08-11T02:15:22.863Z,14.92
2018-08-11T02:17:49.872Z,14.93
2018-08-11T02:20:18.408Z,14.95
2018-08-11T02:22:46.452Z,14.96
2018-08-11T02:25:13.508Z,14.94
2018-08-11T02:27:40.770Z,15.00
2018-08-11T02:30:09.963Z,15.13
2018-08-11T02:32:37.325Z,15.18
2018-08-11T02:35:05.508Z,15.17
2018-08-11T02:37:32.588Z,15.12
2018-08-11T02:39:59.605Z,15.08
2018-08-11T02:42:27.042Z,15.06
2018-08-11T02:44:54.081Z,15.06
2018-08-11T02:47:21.116Z,15.06
2018-08-11T02:49:48.178Z,15.19
2018-08-11T02:52:15.254Z,15.37
2018-08-11T02:54:42.327Z,15.39
2018-08-11T02:57:09.387Z,15.48
2018-08-11T02:59:36.440Z,15.49
2018-08-11T03:02:03.571Z,15.49
2018-08-11T03:04:30.659Z,15.50
2018-08-11T03:06:57.728Z,15.53
2018-08-11T03:09:24.947Z,15.52
2018-08-11T03:11:52.239Z,15.55
2018-08-11T03:14:19.375Z,15.54
2018-08-11T03:16:46.452Z,15.52
2018-08-11T03:19:13.512Z,15.50
2018-08-11T03:21:40.574Z,15.49
2018-08-11T03:24:07.972Z,15.52
2018-08-11T03:26:35.068Z,15.51
2018-08-11T03:29:02.127Z,15.50
2018-08-11T03:31:29.220Z,15.54
2018-08-11T03:33:56.293Z,15.49
2018-08-11T03:36:23.348Z,15.54
2018-08-11T03:38:50.418Z,15.54
2018-08-11T03:41:17.504Z,15.51
2018-08-11T03:43:44.576Z,15.59
2018-08-11T03:46:11.700Z,15.61
2018-08-11T03:48:38.775Z,15.63
2018-08-11T03:51:05.812Z,15.64
2018-08-11T03:53:32.904Z,15.62
2018-08-11T03:55:59.917Z,15.62
2018-08-11T03:58:26.943Z,15.66
2018-08-11T04:00:53.987Z,15.66
2018-08-11T04:03:20.996Z,15.67
2018-08-11T04:05:48.045Z,15.65
2018-08-11T04:08:15.129Z,15.60
2018-08-11T04:10:42.196Z,15.58
2018-08-11T04:13:09.416Z,15.65
2018-08-11T04:15:36.451Z,15.50
2018-08-11T04:18:03.528Z,15.47
2018-08-11T04:20:30.557Z,15.38
2018-08-11T04:22:57.617Z,15.18
2018-08-11T04:25:24.633Z,15.15
2018-08-11T04:27:51.650Z,15.00
2018-08-11T04:30:18.751Z,14.76
2018-08-11T04:32:46.109Z,14.40
2018-08-11T04:35:13.131Z,13.97
2018-08-11T04:37:40.294Z,13.83
2018-08-11T04:40:07.357Z,13.49
2018-08-11T04:42:34.432Z,13.32
2018-08-11T04:45:01.515Z,13.30
2018-08-11T04:47:28.614Z,13.23
2018-08-11T04:50:02.596Z,13.21
2018-08-11T04:52:29.958Z,13.22
2018-08-11T04:54:56.987Z,13.11
2018-08-11T04:57:24.044Z,13.07
2018-08-11T04:59:51.153Z,13.05
2018-08-11T05:02:18.216Z,13.04
2018-08-11T05:04:45.288Z,13.08
2018-08-11T05:07:12.349Z,13.04
2018-08-11T05:09:39.688Z,13.05
2018-08-11T05:12:06.749Z,12.99
2018-08-11T05:14:33.879Z,13.00
2018-08-11T05:17:01.051Z,12.98
2018-08-11T05:19:28.149Z,12.93
2018-08-11T05:21:55.295Z,12.92
2018-08-11T05:24:22.571Z,13.00
2018-08-11T05:26:49.579Z,13.03
2018-08-11T05:29:16.647Z,13.00
2018-08-11T05:31:43.743Z,12.96
2018-08-11T05:34:10.852Z,12.97
2018-08-11T05:36:37.858Z,12.94
2018-08-11T05:39:08.577Z,12.95
2018-08-11T05:41:35.790Z,12.92
2018-08-11T05:44:02.888Z,12.94
2018-08-11T05:46:29.913Z,12.93
2018-08-11T05:48:56.932Z,12.98
2018-08-11T05:51:24.017Z,13.03
2018-08-11T05:53:51.027Z,13.06
2018-08-11T05:56:18.051Z,13.09
2018-08-11T05:58:45.070Z,13.13
2018-08-11T06:01:12.392Z,13.13
2018-08-11T06:03:39.407Z,13.12
2018-08-11T06:06:06.449Z,13.13
2018-08-11T06:08:33.484Z,13.12
2018-08-11T06:11:00.524Z,13.03
2018-08-11T06:13:27.550Z,13.03
2018-08-11T06:15:54.631Z,12.98
2018-08-11T06:18:21.942Z,12.99
2018-08-11T06:20:48.980Z,12.97
2018-08-11T06:23:16.061Z,13.08
2018-08-11T06:25:43.132Z,13.23
2018-08-11T06:28:10.180Z,13.27
2018-08-11T06:30:37.535Z,13.34
2018-08-11T06:33:04.910Z,13.34
2018-08-11T06:35:32.543Z,13.43
2018-08-11T06:37:59.899Z,13.59
2018-08-11T06:40:27.125Z,13.49
2018-08-11T06:42:54.128Z,13.41
2018-08-11T06:45:21.820Z,13.44
2018-08-11T06:47:48.880Z,13.41
2018-08-11T06:50:15.900Z,13.46
2018-08-11T06:52:43.619Z,13.46
2018-08-11T06:55:10.790Z,13.62
2018-08-11T06:57:37.888Z,13.73
2018-08-11T07:00:05.018Z,13.78
2018-08-11T07:02:32.410Z,13.90
2018-08-11T07:04:59.487Z,14.07
2018-08-11T07:07:26.480Z,14.11
2018-08-11T07:09:53.528Z,14.09
2018-08-11T07:12:20.627Z,14.37
2018-08-11T07:14:48.225Z,14.39
2018-08-11T07:17:15.318Z,14.34
2018-08-11T07:19:42.757Z,14.41
2018-08-11T07:22:09.855Z,14.50
2018-08-11T07:24:37.008Z,14.48
2018-08-11T07:27:04.115Z,14.38
2018-08-11T07:29:31.135Z,14.36
2018-08-11T07:31:58.283Z,14.50
2018-08-11T07:34:25.353Z,14.69
2018-08-11T07:36:53.155Z,14.93
2018-08-11T07:39:20.499Z,14.88
2018-08-11T07:41:47.632Z,14.73
2018-08-11T07:44:15.000Z,14.87
2018-08-11T07:46:42.052Z,15.18
2018-08-11T07:49:09.088Z,15.25
2018-08-11T07:51:36.177Z,15.20
2018-08-11T07:54:03.171Z,15.25
2018-08-11T07:56:31.466Z,15.22
2018-08-11T07:58:58.491Z,15.30
2018-08-11T08:01:25.555Z,15.43
2018-08-11T08:03:52.604Z,15.48
2018-08-11T08:06:19.635Z,15.45
2018-08-11T08:08:46.665Z,15.59
2018-08-11T08:11:13.800Z,15.60
2018-08-11T08:13:40.920Z,15.55
2018-08-11T08:16:08.077Z,15.59
2018-08-11T08:18:35.192Z,15.87
2018-08-11T08:21:02.381Z,16.13
2018-08-11T08:23:29.677Z,16.04
2018-08-11T08:25:56.705Z,16.10
2018-08-11T08:28:23.688Z,16.10
2018-08-11T08:30:51.810Z,16.27
2018-08-11T08:33:18.795Z,16.18
2018-08-11T08:35:45.788Z,16.33
2018-08-11T08:38:13.120Z,16.45
2018-08-11T08:40:40.317Z,16.34
2018-08-11T08:43:07.330Z,16.30
2018-08-11T08:45:34.544Z,16.74
2018-08-11T08:48:01.556Z,16.86
2018-08-11T08:50:28.882Z,16.52
2018-08-11T08:52:56.967Z,16.41
2018-08-11T08:55:24.238Z,16.40
2018-08-11T08:57:51.467Z,17.00
2018-08-11T09:00:18.997Z,17.31
2018-08-11T09:02:47.179Z,16.90
2018-08-11T09:05:14.627Z,17.02
2018-08-11T09:07:41.883Z,17.03
2018-08-11T09:10:08.927Z,17.13
2018-08-11T09:12:36.835Z,17.24
2018-08-11T09:15:05.023Z,17.09
2018-08-11T09:17:32.272Z,17.16
2018-08-11T09:20:00.011Z,16.77
2018-08-11T09:22:27.044Z,16.97
2018-08-11T09:24:54.071Z,17.12
2018-08-11T09:27:21.064Z,16.88
2018-08-11T09:29:48.067Z,16.85
2018-08-11T09:32:15.132Z,16.91
2018-08-11T09:34:42.143Z,16.85
2018-08-11T09:37:09.183Z,17.01
2018-08-11T09:39:36.349Z,17.07
2018-08-11T09:42:03.370Z,16.84
2018-08-11T09:44:30.468Z,16.77
2018-08-11T09:46:57.576Z,16.73
2018-08-11T09:49:24.653Z,16.69
2018-08-11T09:51:51.692Z,16.12
2018-08-11T09:54:18.890Z,15.77
2018-08-11T09:56:46.206Z,15.18
2018-08-11T09:59:13.186Z,14.51
2018-08-11T10:01:43.362Z,13.80
2018-08-11T10:04:10.438Z,13.82
2018-08-11T10:06:37.421Z,13.90
2018-08-11T10:09:07.039Z,13.82
2018-08-11T10:11:34.033Z,14.10
2018-08-11T10:14:01.059Z,14.09
2018-08-11T10:16:28.044Z,14.43
2018-08-11T10:18:55.014Z,15.07
2018-08-11T10:21:22.165Z,15.19
2018-08-11T10:23:49.355Z,15.33
2018-08-11T10:26:16.410Z,15.27
2018-08-11T10:28:43.444Z,15.44
2018-08-11T10:31:10.594Z,15.50
2018-08-11T10:33:37.651Z,15.45
2018-08-11T10:36:04.754Z,15.16
2018-08-11T10:41:13.222Z,15.15
2018-08-11T10:43:40.240Z,15.32
2018-08-11T10:46:07.265Z,15.39
2018-08-11T10:48:34.533Z,15.49
2018-08-11T10:51:01.635Z,15.86
2018-08-11T10:53:28.616Z,16.07
2018-08-11T10:55:55.806Z,15.88
2018-08-11T10:58:22.886Z,15.73
2018-08-11T11:00:49.923Z,15.52
2018-08-11T11:03:16.931Z,15.65
2018-08-11T11:05:44.068Z,16.12
2018-08-11T11:08:11.451Z,15.85
2018-08-11T11:10:38.480Z,15.74
2018-08-11T11:13:05.482Z,15.80
2018-08-11T11:15:32.491Z,15.60
2018-08-11T11:17:59.491Z,15.52
2018-08-11T11:20:26.544Z,15.44
2018-08-11T11:22:53.555Z,15.57
2018-08-11T11:25:20.635Z,15.75
2018-08-11T11:27:47.648Z,15.94
2018-08-11T11:30:14.659Z,15.83
2018-08-11T11:32:41.743Z,15.60
2018-08-11T11:35:09.341Z,15.71
2018-08-11T11:37:36.609Z,15.73
2018-08-11T11:40:04.557Z,16.02
2018-08-11T11:42:31.592Z,16.57
2018-08-11T11:44:58.635Z,16.67
2018-08-11T11:47:25.626Z,16.61
2018-08-11T11:49:53.011Z,16.07
2018-08-11T11:52:20.454Z,15.92
2018-08-11T11:54:47.645Z,15.47
2018-08-11T11:57:14.907Z,15.46
2018-08-11T11:59:42.078Z,15.20
2018-08-11T12:02:09.669Z,15.12
2018-08-11T12:04:36.755Z,15.02
2018-08-11T12:07:04.396Z,15.04
2018-08-11T12:09:31.760Z,14.92
2018-08-11T12:11:59.123Z,14.88
2018-08-11T12:14:26.160Z,14.84
2018-08-11T12:16:53.574Z,14.91
2018-08-11T12:19:21.151Z,14.79
2018-08-11T12:21:48.455Z,14.54
2018-08-11T12:24:15.426Z,14.64
2018-08-11T12:26:42.608Z,14.55
2018-08-11T12:29:09.763Z,14.67
2018-08-11T12:31:36.739Z,14.71
2018-08-11T12:34:03.824Z,14.64
2018-08-11T12:36:30.903Z,14.69
2018-08-11T12:38:57.899Z,14.58
2018-08-11T12:41:25.135Z,14.51
2018-08-11T12:43:52.206Z,14.54
2018-08-11T12:46:19.196Z,14.63
2018-08-11T12:48:46.191Z,14.86
2018-08-11T12:51:13.374Z,14.96
2018-08-11T12:53:40.344Z,15.08
2018-08-11T12:56:07.540Z,14.98
2018-08-11T12:58:34.601Z,15.03
2018-08-11T13:01:01.698Z,14.89
2018-08-11T13:03:28.912Z,14.88
2018-08-11T13:05:56.044Z,14.85
2018-08-11T13:08:23.195Z,15.41
2018-08-11T13:10:50.212Z,15.82
2018-08-11T13:13:17.234Z,16.27
2018-08-11T13:15:44.323Z,16.34
2018-08-11T13:18:11.321Z,16.09
2018-08-11T13:20:38.337Z,15.79
2018-08-11T13:23:05.336Z,16.33
2018-08-11T13:25:32.338Z,16.63
2018-08-11T13:27:59.331Z,16.70
2018-08-11T13:30:26.408Z,16.88
2018-08-11T13:32:53.410Z,16.64
2018-08-11T13:35:20.438Z,17.20
2018-08-11T13:37:47.520Z,17.68
2018-08-11T13:40:14.511Z,17.75
2018-08-11T13:42:41.538Z,17.98
2018-08-11T13:45:08.635Z,17.53
2018-08-11T13:47:35.739Z,17.19
2018-08-11T13:50:03.816Z,16.83
2018-08-11T13:52:30.819Z,16.43
2018-08-11T13:54:57.841Z,15.98
2018-08-11T13:57:24.809Z,15.49
2018-08-11T13:59:51.818Z,14.73
2018-08-11T14:02:18.872Z,14.68
2018-08-11T14:04:46.017Z,14.83
2018-08-11T14:07:13.069Z,15.12
2018-08-11T14:09:40.064Z,15.49
2018-08-11T14:12:07.074Z,16.21
2018-08-11T14:14:34.420Z,16.22
2018-08-11T14:17:01.436Z,16.27
2018-08-11T14:19:28.441Z,15.69
2018-08-11T14:21:55.588Z,15.58
2018-08-11T14:24:22.616Z,15.52
2018-08-11T14:26:49.635Z,15.07
2018-08-11T14:29:16.732Z,14.53
2018-08-11T14:31:43.732Z,14.48
2018-08-11T14:34:10.740Z,14.36
2018-08-11T14:36:37.748Z,14.34
2018-08-11T14:39:06.970Z,14.15
2018-08-11T14:41:33.968Z,14.02
2018-08-11T14:44:01.040Z,13.82
2018-08-11T14:46:28.020Z,13.64
2018-08-11T14:48:55.032Z,13.52
2018-08-11T14:51:22.310Z,13.37
2018-08-11T14:53:49.357Z,13.28
2018-08-11T14:56:16.375Z,13.35
2018-08-11T14:58:43.610Z,13.43
2018-08-11T15:01:10.626Z,13.71
2018-08-11T15:03:37.664Z,13.86
2018-08-11T15:06:04.656Z,14.03
2018-08-11T15:08:31.760Z,14.14
2018-08-11T15:10:58.756Z,14.23
2018-08-11T15:13:25.826Z,14.41
2018-08-11T15:15:52.974Z,14.50
2018-08-11T15:18:19.955Z,14.49
2018-08-11T15:20:47.319Z,14.47
2018-08-11T15:23:14.598Z,14.52
2018-08-11T15:25:41.639Z,14.56
2018-08-11T15:28:08.817Z,14.73
2018-08-11T15:30:35.888Z,14.81
2018-08-11T15:33:02.935Z,14.94
2018-08-11T15:35:30.000Z,15.03
2018-08-11T15:37:57.039Z,15.17
2018-08-11T15:40:24.048Z,15.22
2018-08-11T15:42:51.036Z,15.25
2018-08-11T15:45:18.291Z,15.31
2018-08-11T15:47:45.589Z,15.45
2018-08-11T15:50:12.694Z,15.49
2018-08-11T15:52:39.695Z,15.47
2018-08-11T15:55:06.716Z,15.57
2018-08-11T15:57:33.735Z,15.72
2018-08-11T16:00:00.729Z,15.64
2018-08-11T16:02:27.748Z,15.63
2018-08-11T16:04:54.771Z,15.71
2018-08-11T16:07:21.820Z,15.77
2018-08-11T16:09:48.848Z,15.74
2018-08-11T16:12:15.847Z,15.81
2018-08-11T16:14:42.959Z,15.90
2018-08-11T16:17:09.948Z,15.79
2018-08-11T16:19:37.120Z,15.66
2018-08-11T16:22:04.217Z,15.69
2018-08-11T16:24:31.212Z,15.71
2018-08-11T16:26:58.200Z,15.81
2018-08-11T16:29:25.255Z,15.90
2018-08-11T16:31:52.625Z,15.86
2018-08-11T16:34:19.697Z,15.83
2018-08-11T16:36:46.712Z,15.69
2018-08-11T16:39:13.809Z,15.66
2018-08-11T16:41:40.847Z,15.65
2018-08-11T16:44:07.866Z,15.62
2018-08-11T16:46:34.882Z,15.67
2018-08-11T16:49:01.919Z,15.69
2018-08-11T16:51:28.960Z,15.69
2018-08-11T16:53:56.309Z,15.77
2018-08-11T16:56:23.319Z,15.83
2018-08-11T16:58:50.314Z,15.79
2018-08-11T17:01:17.427Z,15.75
2018-08-11T17:03:44.412Z,15.89
2018-08-11T17:06:11.420Z,15.89
2018-08-11T17:08:38.456Z,15.81
2018-08-11T17:11:05.480Z,15.82
2018-08-11T17:16:13.959Z,15.77
2018-08-11T17:18:40.985Z,15.73
2018-08-11T17:21:07.968Z,15.85
2018-08-11T17:23:35.369Z,15.95
2018-08-11T17:26:02.388Z,15.93
2018-08-11T17:28:29.380Z,16.00
2018-08-11T17:30:56.371Z,15.90
2018-08-11T17:33:23.415Z,15.82
2018-08-11T17:35:50.435Z,15.90
2018-08-11T17:38:17.465Z,15.94
2018-08-11T17:40:44.467Z,16.00
2018-08-11T17:43:11.451Z,15.91
2018-08-11T17:45:38.530Z,15.98
2018-08-11T17:48:05.837Z,16.00
2018-08-11T17:50:33.179Z,16.01
2018-08-11T17:53:00.169Z,16.00
2018-08-11T17:55:27.266Z,15.98
2018-08-11T17:57:54.731Z,15.89
2018-08-11T18:00:21.752Z,15.92
2018-08-11T18:02:48.776Z,15.82
2018-08-11T18:05:15.774Z,15.85
2018-08-11T18:07:42.823Z,15.78
2018-08-11T18:10:09.830Z,15.72
2018-08-11T18:12:36.835Z,15.64
2018-08-11T18:15:04.206Z,15.68
2018-08-11T18:17:31.204Z,15.65
2018-08-11T18:19:58.211Z,15.64
2018-08-11T18:22:25.204Z,15.69
2018-08-11T18:24:52.207Z,15.60
2018-08-11T18:27:19.216Z,15.66
2018-08-11T18:29:46.560Z,15.51
2018-08-11T18:32:13.585Z,15.61
2018-08-11T18:34:40.658Z,15.62
2018-08-11T18:37:07.641Z,15.64
2018-08-11T18:39:34.685Z,15.50
2018-08-11T18:42:01.691Z,15.48
2018-08-11T18:44:28.711Z,15.51
2018-08-11T18:46:55.721Z,15.50
2018-08-11T18:49:23.039Z,15.39
2018-08-11T18:51:50.485Z,15.33
2018-08-11T18:54:17.506Z,15.20
2018-08-11T18:56:44.587Z,15.14
2018-08-11T18:59:11.575Z,15.10
2018-08-11T19:01:38.623Z,15.09
2018-08-11T19:04:05.927Z,15.04
2018-08-11T19:06:33.020Z,15.01
2018-08-11T19:08:59.999Z,14.92
2018-08-11T19:11:27.383Z,14.91
2018-08-11T19:13:54.424Z,14.85
2018-08-11T19:16:21.445Z,14.80
2018-08-11T19:18:48.494Z,14.78
2018-08-11T19:21:15.539Z,14.74
2018-08-11T19:23:42.579Z,14.72
2018-08-11T19:26:09.767Z,14.70
2018-08-11T19:28:36.795Z,14.69
2018-08-11T19:31:03.888Z,14.70
2018-08-11T19:33:30.943Z,14.66
2018-08-11T19:35:57.962Z,14.61
2018-08-11T19:38:24.996Z,14.58
2018-08-11T19:40:52.013Z,14.56
2018-08-11T19:43:19.058Z,14.50
2018-08-11T19:45:46.179Z,14.49
2018-08-11T19:48:13.208Z,14.50
2018-08-11T19:50:40.227Z,14.43
2018-08-11T19:53:07.367Z,14.43
2018-08-11T19:55:34.380Z,14.36
2018-08-11T19:58:01.382Z,14.33
2018-08-11T20:00:28.428Z,14.34
2018-08-11T20:02:55.446Z,14.33
2018-08-11T20:05:22.481Z,14.35
2018-08-11T20:07:49.534Z,14.35
2018-08-11T20:10:16.523Z,14.34
2018-08-11T20:12:43.537Z,14.30
2018-08-11T20:15:10.527Z,14.27
2018-08-11T20:17:37.851Z,14.27
2018-08-11T20:20:05.690Z,14.26
2018-08-11T20:22:32.718Z,14.28
2018-08-11T20:24:59.758Z,14.20
2018-08-11T20:27:26.768Z,14.19
2018-08-11T20:29:54.115Z,14.18
2018-08-11T20:32:21.145Z,14.13
2018-08-11T20:34:48.131Z,14.14
2018-08-11T20:37:15.146Z,14.09
2018-08-11T20:39:42.292Z,14.10
2018-08-11T20:42:09.387Z,14.02
2018-08-11T20:44:36.430Z,14.03
2018-08-11T20:47:03.459Z,14.03
2018-08-11T20:49:30.490Z,13.99
2018-08-11T20:51:57.504Z,13.98
2018-08-11T20:54:24.548Z,13.95
2018-08-11T20:56:51.834Z,13.98
2018-08-11T20:59:18.844Z,13.95
2018-08-11T21:01:46.070Z,13.99
2018-08-11T21:04:13.227Z,13.98
2018-08-11T21:06:40.251Z,13.98
2018-08-11T21:09:09.282Z,14.04
2018-08-11T21:11:36.321Z,14.03
2018-08-11T21:14:03.844Z,14.07
2018-08-11T21:16:30.907Z,14.06
2018-08-11T21:18:57.875Z,14.06
2018-08-11T21:21:24.963Z,14.12
2018-08-11T21:23:52.061Z,14.11
2018-08-11T21:26:18.984Z,14.14
2018-08-11T21:28:45.988Z,14.10
2018-08-11T21:31:13.106Z,14.15
2018-08-11T21:33:40.232Z,14.21
2018-08-11T21:36:07.359Z,14.13
2018-08-11T21:38:34.571Z,14.12
2018-08-11T21:41:01.597Z,14.20
2018-08-11T21:43:28.728Z,14.26
2018-08-11T21:45:55.843Z,14.31
2018-08-11T21:48:22.851Z,14.35
2018-08-11T21:50:49.863Z,14.38
2018-08-11T21:53:16.855Z,14.41
2018-08-11T21:55:43.869Z,14.46
2018-08-11T21:58:11.093Z,14.49
2018-08-11T22:00:38.127Z,14.49
2018-08-11T22:03:06.401Z,14.49
2018-08-11T22:05:33.419Z,14.50
2018-08-11T22:08:01.628Z,14.51
2018-08-11T22:10:29.090Z,14.49
2018-08-11T22:12:56.139Z,14.50
2018-08-11T22:15:23.255Z,14.45
2018-08-11T22:17:50.296Z,14.50
2018-08-11T22:20:17.621Z,14.51
2018-08-11T22:22:44.719Z,14.46
2018-08-11T22:25:12.198Z,14.34
2018-08-11T22:27:39.507Z,14.30
2018-08-11T22:30:07.096Z,14.30
2018-08-11T22:32:34.447Z,14.27
2018-08-11T22:35:02.412Z,14.24
2018-08-11T22:37:29.483Z,14.26
2018-08-11T22:39:56.791Z,14.27
2018-08-11T22:42:23.915Z,14.17
2018-08-11T22:44:50.984Z,14.10
2018-08-11T22:47:18.229Z,14.13
2018-08-11T22:49:45.134Z,14.07
2018-08-11T22:52:12.302Z,14.01
2018-08-11T22:54:39.505Z,14.05
2018-08-11T22:57:06.531Z,13.97
2018-08-11T22:59:33.541Z,13.98
2018-08-11T23:02:00.544Z,13.96
2018-08-11T23:04:27.558Z,13.99
2018-08-11T23:06:54.645Z,13.93
2018-08-11T23:09:21.656Z,13.95
2018-08-11T23:11:48.700Z,13.91
2018-08-11T23:14:15.697Z,13.98
2018-08-11T23:16:42.698Z,13.95
2018-08-11T23:19:09.800Z,13.99
2018-08-11T23:21:36.898Z,14.00
2018-08-11T23:24:03.948Z,14.02
2018-08-11T23:26:31.028Z,14.03
2018-08-11T23:28:58.055Z,14.03
2018-08-11T23:31:25.100Z,14.07
2018-08-11T23:33:52.512Z,14.04
2018-08-11T23:36:19.662Z,14.03
2018-08-11T23:38:46.659Z,14.07
2018-08-11T23:41:13.760Z,14.10
2018-08-11T23:43:40.748Z,14.08
2018-08-11T23:46:07.769Z,14.11
2018-08-11T23:48:35.060Z,14.08
2018-08-11T23:51:02.148Z,14.10
2018-08-11T23:53:29.145Z,14.14
2018-08-11T23:55:56.180Z,14.25
2018-08-11T23:58:23.243Z,14.19
